Elvia — 9HA3106 — position and weather

sailwx.info

Track history (hours):
 
Tides and Currents Weather Stations Pressure Air Temp Water Temp Dewpoint Dewpoint Depression Visibility Wind Speed Wind Dir Waves Ship Positions

Elvia

Last reported at 2018-May-26 09:59 UTC. Time now 2018-May-26 10:16 UTC.
Position N 20°39' E 072°36'.

Length 230 m; draft 12.5 m.

Type: Ship. MMSI: 229148000.

Date/timePositionNaut miles runAvg speedWind from/ knotsBaromVisibWave heightAir tempDewpointWater temp
2018-May-26 09:59N 20°39' E 072°36'0 0.4
2018-May-26 09:29N 20°39' E 072°36'0 0.2
2018-May-26 08:35N 20°39' E 072°36'0 0.1
2018-May-26 08:05N 20°39' E 072°36'0 0.0
2018-May-26 07:59N 20°39' E 072°36'0 0.0
2018-May-25 22:29N 20°39' E 072°36'0 0.0
2018-May-25 21:59N 20°39' E 072°36'0 0.1
2018-May-25 16:17N 20°39' E 072°36'0 0.5
2018-May-25 15:51N 20°39' E 072°36'2 4.5
2018-May-25 15:30N 20°39' E 072°34'4 7.7
2018-May-25 15:00N 20°36' E 072°32'912.5
2018-May-25 14:15N 20°26' E 072°31'312.0
2018-May-25 13:59N 20°23' E 072°30'2110.7
2018-May-25 12:04N 20°06' E 072°17'12011.8
2018-May-25 01:52N 19°41' E 070°13'1312.3
2018-May-25 00:47N 19°37' E 069°59'512.3
2018-May-25 00:20N 19°36' E 069°54'612.1
2018-May-24 23:52N 19°34' E 069°48'412.4
2018-May-24 23:30N 19°33' E 069°43'612.3
2018-May-24 23:00N 19°31' E 069°37'612.1
2018-May-24 22:30N 19°30' E 069°31'812.3
2018-May-24 21:51N 19°27' E 069°22'412.5
2018-May-24 21:30N 19°26' E 069°18'712.6
2018-May-24 20:59N 19°25' E 069°11'612.5
2018-May-24 20:30N 19°23' E 069°05'612.3
2018-May-24 19:59N 19°21' E 068°59'612.0
2018-May-24 19:30N 19°20' E 068°53'612.2
2018-May-24 19:00N 19°18' E 068°47'612.5
2018-May-24 18:30N 19°16' E 068°40'912.3
2018-May-24 17:46N 19°13' E 068°31'412.3
2018-May-24 17:26N 19°12' E 068°27'712.1
2018-May-24 16:51N 19°10' E 068°20'412.1
2018-May-24 16:30N 19°10' E 068°15'612.2
2018-May-24 16:00N 19°08' E 068°09'2212.1
2018-May-24 14:10N 19°02' E 067°47'412.2
2018-May-24 13:50N 19°01' E 067°42'6212.2
2018-May-24 08:44N 18°43' E 066°40'312.2
2018-May-24 08:30N 18°43' E 066°37'15311.9
2018-May-23 19:40N 17°58' E 064°02'211.6
2018-May-23 19:28N 17°58' E 063°60'2411.7
2018-May-23 17:24N 17°50' E 063°35'  
Track history (hours):
 
Tides and Currents Weather Stations Pressure Air Temp Water Temp Dewpoint Dewpoint Depression Visibility Wind Speed Wind Dir Waves Ship Positions

Elvia

Last reported at 2018-May-26 09:59 UTC. Time now 2018-May-26 10:16 UTC.
Position N 20°39' E 072°36'.

Length 230 m; draft 12.5 m.

Type: Ship. MMSI: 229148000.

Date/timePositionNaut miles runAvg speedWind from/ knotsBaromVisibWave heightAir tempDewpointWater temp
2018-May-26 09:59N 20°39' E 072°36'0 0.4
2018-May-26 09:29N 20°39' E 072°36'0 0.2
2018-May-26 08:35N 20°39' E 072°36'0 0.1
2018-May-26 08:05N 20°39' E 072°36'0 0.0
2018-May-26 07:59N 20°39' E 072°36'0 0.0
2018-May-25 22:29N 20°39' E 072°36'0 0.0
2018-May-25 21:59N 20°39' E 072°36'0 0.1
2018-May-25 16:17N 20°39' E 072°36'0 0.5
2018-May-25 15:51N 20°39' E 072°36'2 4.5
2018-May-25 15:30N 20°39' E 072°34'4 7.7
2018-May-25 15:00N 20°36' E 072°32'912.5
2018-May-25 14:15N 20°26' E 072°31'312.0
2018-May-25 13:59N 20°23' E 072°30'2110.7
2018-May-25 12:04N 20°06' E 072°17'12011.8
2018-May-25 01:52N 19°41' E 070°13'1312.3
2018-May-25 00:47N 19°37' E 069°59'512.3
2018-May-25 00:20N 19°36' E 069°54'612.1
2018-May-24 23:52N 19°34' E 069°48'412.4
2018-May-24 23:30N 19°33' E 069°43'612.3
2018-May-24 23:00N 19°31' E 069°37'612.1
2018-May-24 22:30N 19°30' E 069°31'812.3
2018-May-24 21:51N 19°27' E 069°22'412.5
2018-May-24 21:30N 19°26' E 069°18'712.6
2018-May-24 20:59N 19°25' E 069°11'612.5
2018-May-24 20:30N 19°23' E 069°05'612.3
2018-May-24 19:59N 19°21' E 068°59'612.0
2018-May-24 19:30N 19°20' E 068°53'612.2
2018-May-24 19:00N 19°18' E 068°47'612.5
2018-May-24 18:30N 19°16' E 068°40'912.3
2018-May-24 17:46N 19°13' E 068°31'412.3
2018-May-24 17:26N 19°12' E 068°27'712.1
2018-May-24 16:51N 19°10' E 068°20'412.1
2018-May-24 16:30N 19°10' E 068°15'612.2
2018-May-24 16:00N 19°08' E 068°09'2212.1
2018-May-24 14:10N 19°02' E 067°47'412.2
2018-May-24 13:50N 19°01' E 067°42'6212.2
2018-May-24 08:44N 18°43' E 066°40'312.2
2018-May-24 08:30N 18°43' E 066°37'15311.9
2018-May-23 19:40N 17°58' E 064°02'211.6
2018-May-23 19:28N 17°58' E 063°60'2411.7
2018-May-23 17:24N 17°50' E 063°35'  

Dump ship's entire track history